sensor_id;sensor_type;location;lat;lon;timestamp;P1;durP1;ratioP1;P2;durP2;ratioP2
69280;SDS011;56392;51.082;17.080;2023-04-01T00:05:34;9.73;;;3.70;;
69280;SDS011;56392;51.082;17.080;2023-04-01T00:10:57;8.68;;;3.67;;
69280;SDS011;56392;51.082;17.080;2023-04-01T00:16:20;11.47;;;3.73;;
69280;SDS011;56392;51.082;17.080;2023-04-01T00:21:44;8.90;;;3.47;;
69280;SDS011;56392;51.082;17.080;2023-04-01T00:27:07;8.77;;;3.22;;
69280;SDS011;56392;51.082;17.080;2023-04-01T00:32:30;8.97;;;3.70;;
69280;SDS011;56392;51.082;17.080;2023-04-01T00:37:55;8.93;;;3.73;;
69280;SDS011;56392;51.082;17.080;2023-04-01T00:43:19;10.13;;;3.70;;
69280;SDS011;56392;51.082;17.080;2023-04-01T00:48:43;12.10;;;5.20;;
69280;SDS011;56392;51.082;17.080;2023-04-01T00:54:11;9.97;;;5.20;;
69280;SDS011;56392;51.082;17.080;2023-04-01T00:59:35;11.77;;;5.10;;
69280;SDS011;56392;51.082;17.080;2023-04-01T01:05:02;10.77;;;5.05;;
69280;SDS011;56392;51.082;17.080;2023-04-01T01:10:29;11.30;;;4.97;;
69280;SDS011;56392;51.082;17.080;2023-04-01T01:15:55;11.88;;;5.82;;
69280;SDS011;56392;51.082;17.080;2023-04-01T01:21:41;11.13;;;5.22;;
69280;SDS011;56392;51.082;17.080;2023-04-01T01:27:18;11.07;;;5.17;;
69280;SDS011;56392;51.082;17.080;2023-04-01T01:32:49;12.20;;;6.23;;
69280;SDS011;56392;51.082;17.080;2023-04-01T01:38:32;16.75;;;6.40;;
69280;SDS011;56392;51.082;17.080;2023-04-01T01:43:56;14.50;;;6.30;;
69280;SDS011;56392;51.082;17.080;2023-04-01T01:49:21;11.97;;;5.50;;
69280;SDS011;56392;51.082;17.080;2023-04-01T01:54:48;13.10;;;5.97;;
69280;SDS011;56392;51.082;17.080;2023-04-01T02:00:12;13.10;;;6.40;;
69280;SDS011;56392;51.082;17.080;2023-04-01T02:05:36;9.90;;;5.40;;
69280;SDS011;56392;51.082;17.080;2023-04-01T02:11:02;10.70;;;5.15;;
69280;SDS011;56392;51.082;17.080;2023-04-01T02:16:28;11.70;;;5.13;;
69280;SDS011;56392;51.082;17.080;2023-04-01T02:21:57;14.77;;;5.50;;
69280;SDS011;56392;51.082;17.080;2023-04-01T02:27:23;9.53;;;4.53;;
69280;SDS011;56392;51.082;17.080;2023-04-01T02:32:46;9.23;;;4.70;;
69280;SDS011;56392;51.082;17.080;2023-04-01T02:38:11;9.02;;;4.32;;
69280;SDS011;56392;51.082;17.080;2023-04-01T02:43:38;7.13;;;3.47;;
69280;SDS011;56392;51.082;17.080;2023-04-01T02:49:01;9.98;;;3.65;;
69280;SDS011;56392;51.082;17.080;2023-04-01T02:54:24;7.45;;;2.85;;
69280;SDS011;56392;51.082;17.080;2023-04-01T02:59:50;8.83;;;3.23;;
69280;SDS011;56392;51.082;17.080;2023-04-01T03:05:13;8.57;;;3.20;;
69280;SDS011;56392;51.082;17.080;2023-04-01T03:10:36;7.57;;;3.20;;
69280;SDS011;56392;51.082;17.080;2023-04-01T03:16:01;7.43;;;2.67;;
69280;SDS011;56392;51.082;17.080;2023-04-01T03:21:25;6.90;;;2.70;;
69280;SDS011;56392;51.082;17.080;2023-04-01T03:26:48;9.07;;;2.53;;
69280;SDS011;56392;51.082;17.080;2023-04-01T03:32:13;7.35;;;2.67;;
69280;SDS011;56392;51.082;17.080;2023-04-01T03:37:36;7.20;;;2.43;;
69280;SDS011;56392;51.082;17.080;2023-04-01T03:42:59;28.50;;;2.80;;
69280;SDS011;56392;51.082;17.080;2023-04-01T03:48:23;8.93;;;3.20;;
69280;SDS011;56392;51.082;17.080;2023-04-01T03:53:48;8.87;;;3.30;;
69280;SDS011;56392;51.082;17.080;2023-04-01T03:59:11;8.93;;;3.38;;
69280;SDS011;56392;51.082;17.080;2023-04-01T04:04:36;8.07;;;3.00;;
69280;SDS011;56392;51.082;17.080;2023-04-01T04:09:59;8.93;;;3.23;;
69280;SDS011;56392;51.082;17.080;2023-04-01T04:15:22;10.67;;;3.40;;
69280;SDS011;56392;51.082;17.080;2023-04-01T04:20:46;9.90;;;3.97;;
69280;SDS011;56392;51.082;17.080;2023-04-01T04:26:13;8.85;;;3.80;;
69280;SDS011;56392;51.082;17.080;2023-04-01T04:31:37;7.93;;;3.50;;
69280;SDS011;56392;51.082;17.080;2023-04-01T04:37:01;7.90;;;2.80;;
69280;SDS011;56392;51.082;17.080;2023-04-01T04:42:25;6.63;;;2.45;;
69280;SDS011;56392;51.082;17.080;2023-04-01T04:47:48;6.80;;;2.20;;
69280;SDS011;56392;51.082;17.080;2023-04-01T04:53:12;7.07;;;2.00;;
69280;SDS011;56392;51.082;17.080;2023-04-01T04:58:36;6.85;;;2.00;;
69280;SDS011;56392;51.082;17.080;2023-04-01T05:03:59;7.73;;;2.10;;
69280;SDS011;56392;51.082;17.080;2023-04-01T05:09:23;8.27;;;2.37;;
69280;SDS011;56392;51.082;17.080;2023-04-01T05:14:46;5.10;;;1.65;;
69280;SDS011;56392;51.082;17.080;2023-04-01T05:20:11;6.75;;;1.90;;
69280;SDS011;56392;51.082;17.080;2023-04-01T05:25:38;7.07;;;2.30;;
69280;SDS011;56392;51.082;17.080;2023-04-01T05:31:02;7.72;;;2.30;;
69280;SDS011;56392;51.082;17.080;2023-04-01T05:36:27;6.18;;;1.83;;
69280;SDS011;56392;51.082;17.080;2023-04-01T05:41:51;7.13;;;2.10;;
69280;SDS011;56392;51.082;17.080;2023-04-01T05:47:14;6.22;;;1.90;;
69280;SDS011;56392;51.082;17.080;2023-04-01T05:52:37;8.48;;;2.40;;
69280;SDS011;56392;51.082;17.080;2023-04-01T05:58:02;7.70;;;2.10;;
69280;SDS011;56392;51.082;17.080;2023-04-01T06:03:25;7.00;;;2.20;;
69280;SDS011;56392;51.082;17.080;2023-04-01T06:08:48;9.75;;;2.78;;
69280;SDS011;56392;51.082;17.080;2023-04-01T06:14:15;8.05;;;2.50;;
69280;SDS011;56392;51.082;17.080;2023-04-01T06:19:49;7.23;;;2.00;;
69280;SDS011;56392;51.082;17.080;2023-04-01T06:25:29;6.63;;;2.08;;
69280;SDS011;56392;51.082;17.080;2023-04-01T06:30:58;8.45;;;2.10;;
69280;SDS011;56392;51.082;17.080;2023-04-01T06:42:21;7.30;;;2.00;;
69280;SDS011;56392;51.082;17.080;2023-04-01T06:48:05;7.32;;;2.20;;
69280;SDS011;56392;51.082;17.080;2023-04-01T06:53:42;7.13;;;2.10;;
69280;SDS011;56392;51.082;17.080;2023-04-01T06:59:12;7.00;;;2.40;;
69280;SDS011;56392;51.082;17.080;2023-04-01T07:04:40;7.10;;;2.45;;
69280;SDS011;56392;51.082;17.080;2023-04-01T07:10:09;8.90;;;2.40;;
69280;SDS011;56392;51.082;17.080;2023-04-01T07:15:37;8.50;;;2.30;;
69280;SDS011;56392;51.082;17.080;2023-04-01T07:21:04;7.82;;;2.30;;
69280;SDS011;56392;51.082;17.080;2023-04-01T07:26:32;6.95;;;2.20;;
69280;SDS011;56392;51.082;17.080;2023-04-01T07:32:05;6.67;;;2.00;;
69280;SDS011;56392;51.082;17.080;2023-04-01T07:37:38;5.80;;;2.00;;
69280;SDS011;56392;51.082;17.080;2023-04-01T07:43:12;6.55;;;2.03;;
69280;SDS011;56392;51.082;17.080;2023-04-01T07:49:01;8.23;;;2.27;;
69280;SDS011;56392;51.082;17.080;2023-04-01T07:54:32;8.77;;;2.20;;
69280;SDS011;56392;51.082;17.080;2023-04-01T08:00:02;10.73;;;2.17;;
69280;SDS011;56392;51.082;17.080;2023-04-01T08:05:33;6.50;;;1.77;;
69280;SDS011;56392;51.082;17.080;2023-04-01T08:11:03;6.67;;;2.10;;
69280;SDS011;56392;51.082;17.080;2023-04-01T08:16:34;8.23;;;2.25;;
69280;SDS011;56392;51.082;17.080;2023-04-01T08:22:03;6.60;;;2.05;;
69280;SDS011;56392;51.082;17.080;2023-04-01T08:27:34;7.70;;;2.37;;
69280;SDS011;56392;51.082;17.080;2023-04-01T08:33:01;9.57;;;2.58;;
69280;SDS011;56392;51.082;17.080;2023-04-01T08:38:31;7.30;;;2.60;;
69280;SDS011;56392;51.082;17.080;2023-04-01T08:50:05;10.53;;;3.00;;
69280;SDS011;56392;51.082;17.080;2023-04-01T08:55:51;9.20;;;2.85;;
69280;SDS011;56392;51.082;17.080;2023-04-01T09:01:51;8.43;;;2.90;;
69280;SDS011;56392;51.082;17.080;2023-04-01T09:07:29;9.17;;;3.00;;
69280;SDS011;56392;51.082;17.080;2023-04-01T09:18:58;10.38;;;3.03;;
69280;SDS011;56392;51.082;17.080;2023-04-01T09:24:35;7.37;;;2.93;;
69280;SDS011;56392;51.082;17.080;2023-04-01T09:36:00;9.48;;;2.83;;
69280;SDS011;56392;51.082;17.080;2023-04-01T09:41:30;8.03;;;3.20;;
69280;SDS011;56392;51.082;17.080;2023-04-01T09:46:58;9.83;;;2.63;;
69280;SDS011;56392;51.082;17.080;2023-04-01T09:52:34;8.52;;;3.00;;
69280;SDS011;56392;51.082;17.080;2023-04-01T09:58:14;8.90;;;3.17;;
69280;SDS011;56392;51.082;17.080;2023-04-01T10:16:18;8.15;;;2.90;;
69280;SDS011;56392;51.082;17.080;2023-04-01T10:28:04;6.72;;;2.67;;
69280;SDS011;56392;51.082;17.080;2023-04-01T10:33:47;11.07;;;2.78;;
69280;SDS011;56392;51.082;17.080;2023-04-01T10:52:24;4.38;;;1.40;;
69280;SDS011;56392;51.082;17.080;2023-04-01T11:16:50;10.93;;;1.45;;
69280;SDS011;56392;51.082;17.080;2023-04-01T11:28:47;12.55;;;1.60;;
69280;SDS011;56392;51.082;17.080;2023-04-01T11:40:11;6.80;;;1.93;;
69280;SDS011;56392;51.082;17.080;2023-04-01T11:45:49;6.13;;;1.87;;
69280;SDS011;56392;51.082;17.080;2023-04-01T11:51:28;6.30;;;2.13;;
69280;SDS011;56392;51.082;17.080;2023-04-01T11:57:09;5.50;;;1.90;;
69280;SDS011;56392;51.082;17.080;2023-04-01T12:03:05;3.90;;;1.00;;
69280;SDS011;56392;51.082;17.080;2023-04-01T12:08:42;4.63;;;1.30;;
69280;SDS011;56392;51.082;17.080;2023-04-01T12:14:16;3.53;;;1.08;;
69280;SDS011;56392;51.082;17.080;2023-04-01T12:19:47;6.67;;;1.53;;
69280;SDS011;56392;51.082;17.080;2023-04-01T12:25:19;5.53;;;1.27;;
69280;SDS011;56392;51.082;17.080;2023-04-01T12:30:57;4.85;;;1.40;;
69280;SDS011;56392;51.082;17.080;2023-04-01T12:36:48;5.20;;;1.13;;
69280;SDS011;56392;51.082;17.080;2023-04-01T12:42:25;4.60;;;1.00;;
69280;SDS011;56392;51.082;17.080;2023-04-01T12:48:05;5.18;;;1.40;;
69280;SDS011;56392;51.082;17.080;2023-04-01T12:54:01;5.90;;;1.33;;
69280;SDS011;56392;51.082;17.080;2023-04-01T12:59:58;8.23;;;1.67;;
69280;SDS011;56392;51.082;17.080;2023-04-01T13:05:43;8.45;;;1.70;;
69280;SDS011;56392;51.082;17.080;2023-04-01T13:11:33;16.27;;;2.00;;
69280;SDS011;56392;51.082;17.080;2023-04-01T13:17:06;7.27;;;1.70;;
69280;SDS011;56392;51.082;17.080;2023-04-01T13:22:44;5.65;;;1.77;;
69280;SDS011;56392;51.082;17.080;2023-04-01T13:28:17;7.75;;;2.15;;
69280;SDS011;56392;51.082;17.080;2023-04-01T13:33:45;6.83;;;2.37;;
69280;SDS011;56392;51.082;17.080;2023-04-01T13:39:15;8.63;;;2.83;;
69280;SDS011;56392;51.082;17.080;2023-04-01T13:44:54;12.45;;;4.95;;
69280;SDS011;56392;51.082;17.080;2023-04-01T13:50:26;12.50;;;4.40;;
69280;SDS011;56392;51.082;17.080;2023-04-01T13:56:03;9.07;;;4.13;;
69280;SDS011;56392;51.082;17.080;2023-04-01T14:01:37;10.80;;;3.38;;
69280;SDS011;56392;51.082;17.080;2023-04-01T14:07:08;7.97;;;2.63;;
69280;SDS011;56392;51.082;17.080;2023-04-01T14:12:42;6.93;;;1.90;;
69280;SDS011;56392;51.082;17.080;2023-04-01T14:24:12;4.70;;;1.20;;
69280;SDS011;56392;51.082;17.080;2023-04-01T14:29:48;5.80;;;1.10;;
69280;SDS011;56392;51.082;17.080;2023-04-01T14:35:27;5.07;;;1.30;;
69280;SDS011;56392;51.082;17.080;2023-04-01T14:41:01;5.35;;;1.27;;
69280;SDS011;56392;51.082;17.080;2023-04-01T14:46:43;5.00;;;1.52;;
69280;SDS011;56392;51.082;17.080;2023-04-01T14:52:43;6.13;;;2.00;;
69280;SDS011;56392;51.082;17.080;2023-04-01T14:58:18;5.90;;;1.90;;
69280;SDS011;56392;51.082;17.080;2023-04-01T15:03:48;6.95;;;2.42;;
69280;SDS011;56392;51.082;17.080;2023-04-01T15:09:19;8.63;;;2.70;;
69280;SDS011;56392;51.082;17.080;2023-04-01T15:14:57;8.68;;;2.80;;
69280;SDS011;56392;51.082;17.080;2023-04-01T15:26:46;8.07;;;3.33;;
69280;SDS011;56392;51.082;17.080;2023-04-01T15:32:32;7.27;;;2.77;;
69280;SDS011;56392;51.082;17.080;2023-04-01T15:38:20;6.18;;;2.30;;
69280;SDS011;56392;51.082;17.080;2023-04-01T15:43:51;8.05;;;2.47;;
69280;SDS011;56392;51.082;17.080;2023-04-01T15:49:16;8.10;;;3.10;;
69280;SDS011;56392;51.082;17.080;2023-04-01T15:54:51;9.48;;;3.60;;
69280;SDS011;56392;51.082;17.080;2023-04-01T16:00:31;8.07;;;3.42;;
69280;SDS011;56392;51.082;17.080;2023-04-01T16:06:11;9.13;;;3.87;;
69280;SDS011;56392;51.082;17.080;2023-04-01T16:11:46;8.85;;;4.05;;
69280;SDS011;56392;51.082;17.080;2023-04-01T16:17:21;9.05;;;4.35;;
69280;SDS011;56392;51.082;17.080;2023-04-01T16:23:20;9.90;;;4.50;;
69280;SDS011;56392;51.082;17.080;2023-04-01T16:28:50;9.73;;;4.60;;
69280;SDS011;56392;51.082;17.080;2023-04-01T16:34:18;10.27;;;5.18;;
69280;SDS011;56392;51.082;17.080;2023-04-01T16:39:48;11.82;;;5.25;;
69280;SDS011;56392;51.082;17.080;2023-04-01T16:45:18;11.40;;;5.73;;
69280;SDS011;56392;51.082;17.080;2023-04-01T16:50:53;12.40;;;6.10;;
69280;SDS011;56392;51.082;17.080;2023-04-01T16:56:22;11.77;;;5.78;;
69280;SDS011;56392;51.082;17.080;2023-04-01T17:01:48;11.17;;;5.93;;
69280;SDS011;56392;51.082;17.080;2023-04-01T17:07:20;12.80;;;5.78;;
69280;SDS011;56392;51.082;17.080;2023-04-01T17:12:50;12.10;;;5.75;;
69280;SDS011;56392;51.082;17.080;2023-04-01T17:18:33;12.10;;;5.97;;
69280;SDS011;56392;51.082;17.080;2023-04-01T17:24:09;12.50;;;6.23;;
69280;SDS011;56392;51.082;17.080;2023-04-01T17:29:58;12.18;;;6.40;;
69280;SDS011;56392;51.082;17.080;2023-04-01T17:35:32;13.40;;;6.78;;
69280;SDS011;56392;51.082;17.080;2023-04-01T17:41:06;14.57;;;6.80;;
69280;SDS011;56392;51.082;17.080;2023-04-01T17:46:56;16.35;;;8.18;;
69280;SDS011;56392;51.082;17.080;2023-04-01T17:52:33;15.98;;;8.40;;
69280;SDS011;56392;51.082;17.080;2023-04-01T17:58:05;16.60;;;8.93;;
69280;SDS011;56392;51.082;17.080;2023-04-01T18:03:42;22.27;;;10.50;;
69280;SDS011;56392;51.082;17.080;2023-04-01T18:09:19;23.40;;;11.45;;
69280;SDS011;56392;51.082;17.080;2023-04-01T18:14:57;25.40;;;13.60;;
69280;SDS011;56392;51.082;17.080;2023-04-01T18:20:38;26.03;;;13.10;;
69280;SDS011;56392;51.082;17.080;2023-04-01T18:26:12;25.27;;;13.05;;
69280;SDS011;56392;51.082;17.080;2023-04-01T18:31:45;29.15;;;14.77;;
69280;SDS011;56392;51.082;17.080;2023-04-01T18:37:14;29.67;;;15.80;;
69280;SDS011;56392;51.082;17.080;2023-04-01T18:42:43;30.80;;;15.30;;
69280;SDS011;56392;51.082;17.080;2023-04-01T18:48:30;29.52;;;15.20;;
69280;SDS011;56392;51.082;17.080;2023-04-01T18:54:02;30.63;;;15.90;;
69280;SDS011;56392;51.082;17.080;2023-04-01T18:59:32;31.67;;;15.38;;
69280;SDS011;56392;51.082;17.080;2023-04-01T19:05:12;33.65;;;16.58;;
69280;SDS011;56392;51.082;17.080;2023-04-01T19:10:41;31.20;;;16.03;;
69280;SDS011;56392;51.082;17.080;2023-04-01T19:16:12;31.60;;;15.43;;
69280;SDS011;56392;51.082;17.080;2023-04-01T19:21:45;33.30;;;15.85;;
69280;SDS011;56392;51.082;17.080;2023-04-01T19:27:18;29.85;;;15.48;;
69280;SDS011;56392;51.082;17.080;2023-04-01T19:32:52;28.43;;;14.40;;
69280;SDS011;56392;51.082;17.080;2023-04-01T19:38:26;31.65;;;15.52;;
69280;SDS011;56392;51.082;17.080;2023-04-01T19:43:59;31.77;;;15.23;;
69280;SDS011;56392;51.082;17.080;2023-04-01T19:49:36;31.57;;;15.30;;
69280;SDS011;56392;51.082;17.080;2023-04-01T19:55:21;30.58;;;15.40;;
69280;SDS011;56392;51.082;17.080;2023-04-01T20:00:57;30.85;;;15.45;;
69280;SDS011;56392;51.082;17.080;2023-04-01T20:06:23;32.27;;;15.63;;
69280;SDS011;56392;51.082;17.080;2023-04-01T20:11:58;34.17;;;16.80;;
69280;SDS011;56392;51.082;17.080;2023-04-01T20:17:25;36.00;;;17.63;;
69280;SDS011;56392;51.082;17.080;2023-04-01T20:22:55;35.08;;;16.73;;
69280;SDS011;56392;51.082;17.080;2023-04-01T20:29:02;34.27;;;17.60;;
69280;SDS011;56392;51.082;17.080;2023-04-01T20:34:48;48.45;;;20.23;;
69280;SDS011;56392;51.082;17.080;2023-04-01T20:40:32;34.88;;;18.25;;
69280;SDS011;56392;51.082;17.080;2023-04-01T20:46:00;33.57;;;17.73;;
69280;SDS011;56392;51.082;17.080;2023-04-01T20:51:29;32.88;;;17.52;;
69280;SDS011;56392;51.082;17.080;2023-04-01T20:56:57;32.88;;;17.38;;
69280;SDS011;56392;51.082;17.080;2023-04-01T21:02:32;34.87;;;18.33;;
69280;SDS011;56392;51.082;17.080;2023-04-01T21:08:08;33.83;;;18.20;;
69280;SDS011;56392;51.082;17.080;2023-04-01T21:13:44;37.95;;;19.65;;
69280;SDS011;56392;51.082;17.080;2023-04-01T21:19:32;35.20;;;18.30;;
69280;SDS011;56392;51.082;17.080;2023-04-01T21:25:14;35.27;;;19.00;;
69280;SDS011;56392;51.082;17.080;2023-04-01T21:30:49;39.10;;;19.52;;
69280;SDS011;56392;51.082;17.080;2023-04-01T21:36:30;42.67;;;20.48;;
69280;SDS011;56392;51.082;17.080;2023-04-01T21:42:04;39.43;;;20.13;;
69280;SDS011;56392;51.082;17.080;2023-04-01T22:00:07;39.53;;;18.60;;
69280;SDS011;56392;51.082;17.080;2023-04-01T22:05:37;38.10;;;18.00;;
69280;SDS011;56392;51.082;17.080;2023-04-01T22:11:06;38.28;;;18.35;;
69280;SDS011;56392;51.082;17.080;2023-04-01T22:16:39;36.53;;;17.95;;
69280;SDS011;56392;51.082;17.080;2023-04-01T22:22:08;37.97;;;19.17;;
69280;SDS011;56392;51.082;17.080;2023-04-01T22:27:41;37.92;;;19.15;;
69280;SDS011;56392;51.082;17.080;2023-04-01T22:33:10;36.97;;;18.67;;
69280;SDS011;56392;51.082;17.080;2023-04-01T22:38:43;36.57;;;19.17;;
69280;SDS011;56392;51.082;17.080;2023-04-01T22:44:20;34.45;;;17.67;;
69280;SDS011;56392;51.082;17.080;2023-04-01T22:49:54;34.30;;;17.35;;
69280;SDS011;56392;51.082;17.080;2023-04-01T22:55:21;30.70;;;16.60;;
69280;SDS011;56392;51.082;17.080;2023-04-01T23:00:48;31.73;;;16.17;;
69280;SDS011;56392;51.082;17.080;2023-04-01T23:06:15;29.13;;;15.05;;
69280;SDS011;56392;51.082;17.080;2023-04-01T23:11:43;24.00;;;13.45;;
69280;SDS011;56392;51.082;17.080;2023-04-01T23:23:08;23.45;;;12.95;;
69280;SDS011;56392;51.082;17.080;2023-04-01T23:28:41;19.77;;;11.52;;
69280;SDS011;56392;51.082;17.080;2023-04-01T23:39:53;19.17;;;10.20;;
69280;SDS011;56392;51.082;17.080;2023-04-01T23:45:17;15.82;;;9.45;;
69280;SDS011;56392;51.082;17.080;2023-04-01T23:50:43;17.17;;;9.53;;
69280;SDS011;56392;51.082;17.080;2023-04-01T23:56:08;17.13;;;9.07;;
